sensor_id;sensor_type;location;lat;lon;timestamp;P1;durP1;ratioP1;P2;durP2;ratioP2
51578;SDS011;47998;53.242;6.386;2023-06-14T00:00:39;3.42;;;1.10;;
51578;SDS011;47998;53.242;6.386;2023-06-14T00:03:09;2.38;;;1.20;;
51578;SDS011;47998;53.242;6.386;2023-06-14T00:05:37;4.07;;;1.60;;
51578;SDS011;47998;53.242;6.386;2023-06-14T00:08:10;4.70;;;1.52;;
51578;SDS011;47998;53.242;6.386;2023-06-14T00:10:36;2.65;;;1.27;;
51578;SDS011;47998;53.242;6.386;2023-06-14T00:13:02;5.05;;;1.50;;
51578;SDS011;47998;53.242;6.386;2023-06-14T00:15:30;4.10;;;1.48;;
51578;SDS011;47998;53.242;6.386;2023-06-14T00:17:56;3.15;;;2.13;;
51578;SDS011;47998;53.242;6.386;2023-06-14T00:20:26;2.72;;;1.20;;
51578;SDS011;47998;53.242;6.386;2023-06-14T00:22:52;2.85;;;1.10;;
51578;SDS011;47998;53.242;6.386;2023-06-14T00:25:20;4.47;;;1.45;;
51578;SDS011;47998;53.242;6.386;2023-06-14T00:27:47;3.10;;;1.30;;
51578;SDS011;47998;53.242;6.386;2023-06-14T00:30:13;6.35;;;1.67;;
51578;SDS011;47998;53.242;6.386;2023-06-14T00:32:39;3.45;;;1.42;;
51578;SDS011;47998;53.242;6.386;2023-06-14T00:35:04;4.25;;;1.52;;
51578;SDS011;47998;53.242;6.386;2023-06-14T00:37:32;3.05;;;1.20;;
51578;SDS011;47998;53.242;6.386;2023-06-14T00:39:58;4.32;;;1.35;;
51578;SDS011;47998;53.242;6.386;2023-06-14T00:42:24;2.90;;;0.98;;
51578;SDS011;47998;53.242;6.386;2023-06-14T00:44:51;2.90;;;0.88;;
51578;SDS011;47998;53.242;6.386;2023-06-14T00:47:17;2.47;;;1.30;;
51578;SDS011;47998;53.242;6.386;2023-06-14T00:49:45;1.95;;;1.30;;
51578;SDS011;47998;53.242;6.386;2023-06-14T00:52:10;4.93;;;1.23;;
51578;SDS011;47998;53.242;6.386;2023-06-14T00:54:37;7.03;;;1.63;;
51578;SDS011;47998;53.242;6.386;2023-06-14T00:57:04;2.67;;;1.20;;
51578;SDS011;47998;53.242;6.386;2023-06-14T00:59:31;3.05;;;1.23;;
51578;SDS011;47998;53.242;6.386;2023-06-14T01:01:57;4.00;;;1.40;;
51578;SDS011;47998;53.242;6.386;2023-06-14T01:04:22;1.92;;;1.20;;
51578;SDS011;47998;53.242;6.386;2023-06-14T01:09:28;2.15;;;1.02;;
51578;SDS011;47998;53.242;6.386;2023-06-14T01:12:44;2.67;;;1.00;;
51578;SDS011;47998;53.242;6.386;2023-06-14T01:15:17;4.05;;;1.15;;
51578;SDS011;47998;53.242;6.386;2023-06-14T01:17:45;5.15;;;1.33;;
51578;SDS011;47998;53.242;6.386;2023-06-14T01:20:16;3.65;;;1.15;;
51578;SDS011;47998;53.242;6.386;2023-06-14T01:22:51;4.80;;;1.30;;
51578;SDS011;47998;53.242;6.386;2023-06-14T01:25:18;2.30;;;1.45;;
51578;SDS011;47998;53.242;6.386;2023-06-14T01:27:47;3.47;;;1.08;;
51578;SDS011;47998;53.242;6.386;2023-06-14T01:30:24;3.80;;;1.13;;
51578;SDS011;47998;53.242;6.386;2023-06-14T01:32:50;3.15;;;1.05;;
51578;SDS011;47998;53.242;6.386;2023-06-14T01:35:18;3.85;;;1.20;;
51578;SDS011;47998;53.242;6.386;2023-06-14T01:37:44;6.25;;;1.40;;
51578;SDS011;47998;53.242;6.386;2023-06-14T01:40:13;7.03;;;1.35;;
51578;SDS011;47998;53.242;6.386;2023-06-14T01:42:40;2.58;;;1.05;;
51578;SDS011;47998;53.242;6.386;2023-06-14T01:45:06;3.13;;;1.10;;
51578;SDS011;47998;53.242;6.386;2023-06-14T01:47:33;5.50;;;1.27;;
51578;SDS011;47998;53.242;6.386;2023-06-14T01:50:01;3.08;;;1.23;;
51578;SDS011;47998;53.242;6.386;2023-06-14T01:52:28;1.92;;;0.90;;
51578;SDS011;47998;53.242;6.386;2023-06-14T01:54:53;3.90;;;1.33;;
51578;SDS011;47998;53.242;6.386;2023-06-14T01:57:19;3.83;;;1.75;;
51578;SDS011;47998;53.242;6.386;2023-06-14T01:59:46;2.03;;;1.20;;
51578;SDS011;47998;53.242;6.386;2023-06-14T02:02:13;2.83;;;1.35;;
51578;SDS011;47998;53.242;6.386;2023-06-14T02:04:40;4.40;;;1.40;;
51578;SDS011;47998;53.242;6.386;2023-06-14T02:07:06;3.30;;;1.38;;
51578;SDS011;47998;53.242;6.386;2023-06-14T02:09:33;1.58;;;1.00;;
51578;SDS011;47998;53.242;6.386;2023-06-14T02:12:00;3.67;;;1.20;;
51578;SDS011;47998;53.242;6.386;2023-06-14T02:14:26;9.18;;;1.63;;
51578;SDS011;47998;53.242;6.386;2023-06-14T02:16:52;3.75;;;1.70;;
51578;SDS011;47998;53.242;6.386;2023-06-14T02:19:18;3.22;;;1.50;;
51578;SDS011;47998;53.242;6.386;2023-06-14T02:21:44;3.25;;;1.30;;
51578;SDS011;47998;53.242;6.386;2023-06-14T02:24:10;2.83;;;1.40;;
51578;SDS011;47998;53.242;6.386;2023-06-14T02:26:36;3.42;;;1.40;;
51578;SDS011;47998;53.242;6.386;2023-06-14T02:29:06;3.67;;;1.30;;
51578;SDS011;47998;53.242;6.386;2023-06-14T02:31:35;2.30;;;1.38;;
51578;SDS011;47998;53.242;6.386;2023-06-14T02:34:01;4.80;;;1.83;;
51578;SDS011;47998;53.242;6.386;2023-06-14T02:36:26;3.97;;;1.65;;
51578;SDS011;47998;53.242;6.386;2023-06-14T02:38:54;2.72;;;1.30;;
51578;SDS011;47998;53.242;6.386;2023-06-14T02:41:22;3.20;;;1.40;;
51578;SDS011;47998;53.242;6.386;2023-06-14T02:43:49;4.20;;;1.75;;
51578;SDS011;47998;53.242;6.386;2023-06-14T02:46:15;3.50;;;1.80;;
51578;SDS011;47998;53.242;6.386;2023-06-14T02:48:40;3.28;;;1.58;;
51578;SDS011;47998;53.242;6.386;2023-06-14T02:51:06;6.60;;;1.33;;
51578;SDS011;47998;53.242;6.386;2023-06-14T02:53:33;3.83;;;1.80;;
51578;SDS011;47998;53.242;6.386;2023-06-14T02:55:59;2.65;;;1.75;;
51578;SDS011;47998;53.242;6.386;2023-06-14T02:58:26;2.22;;;1.45;;
51578;SDS011;47998;53.242;6.386;2023-06-14T03:00:52;1.95;;;1.38;;
51578;SDS011;47998;53.242;6.386;2023-06-14T03:03:18;2.42;;;1.52;;
51578;SDS011;47998;53.242;6.386;2023-06-14T03:05:45;4.65;;;1.45;;
51578;SDS011;47998;53.242;6.386;2023-06-14T03:08:14;2.90;;;1.70;;
51578;SDS011;47998;53.242;6.386;2023-06-14T03:10:48;2.55;;;1.55;;
51578;SDS011;47998;53.242;6.386;2023-06-14T03:13:17;3.70;;;1.70;;
51578;SDS011;47998;53.242;6.386;2023-06-14T03:15:46;5.35;;;2.08;;
51578;SDS011;47998;53.242;6.386;2023-06-14T03:18:12;3.28;;;1.75;;
51578;SDS011;47998;53.242;6.386;2023-06-14T03:20:40;6.50;;;2.00;;
51578;SDS011;47998;53.242;6.386;2023-06-14T03:23:06;3.90;;;1.92;;
51578;SDS011;47998;53.242;6.386;2023-06-14T03:25:32;6.38;;;2.20;;
51578;SDS011;47998;53.242;6.386;2023-06-14T03:28:03;5.30;;;1.80;;
51578;SDS011;47998;53.242;6.386;2023-06-14T03:30:30;2.83;;;1.55;;
51578;SDS011;47998;53.242;6.386;2023-06-14T03:32:56;2.75;;;1.75;;
51578;SDS011;47998;53.242;6.386;2023-06-14T03:35:22;2.95;;;1.50;;
51578;SDS011;47998;53.242;6.386;2023-06-14T03:37:48;5.53;;;2.05;;
51578;SDS011;47998;53.242;6.386;2023-06-14T03:40:15;3.63;;;2.20;;
51578;SDS011;47998;53.242;6.386;2023-06-14T03:42:43;2.97;;;1.60;;
51578;SDS011;47998;53.242;6.386;2023-06-14T03:45:09;5.53;;;1.83;;
51578;SDS011;47998;53.242;6.386;2023-06-14T03:47:35;4.65;;;2.92;;
51578;SDS011;47998;53.242;6.386;2023-06-14T03:50:01;6.40;;;2.00;;
51578;SDS011;47998;53.242;6.386;2023-06-14T03:52:28;6.07;;;2.13;;
51578;SDS011;47998;53.242;6.386;2023-06-14T03:54:54;4.10;;;2.20;;
51578;SDS011;47998;53.242;6.386;2023-06-14T03:57:21;8.80;;;2.33;;
51578;SDS011;47998;53.242;6.386;2023-06-14T03:59:48;4.95;;;2.10;;
51578;SDS011;47998;53.242;6.386;2023-06-14T04:02:13;6.28;;;2.33;;
51578;SDS011;47998;53.242;6.386;2023-06-14T04:04:43;3.53;;;1.95;;
51578;SDS011;47998;53.242;6.386;2023-06-14T04:07:13;5.32;;;2.95;;
51578;SDS011;47998;53.242;6.386;2023-06-14T04:09:44;3.83;;;1.73;;
51578;SDS011;47998;53.242;6.386;2023-06-14T04:12:10;3.75;;;2.17;;
51578;SDS011;47998;53.242;6.386;2023-06-14T04:14:39;5.70;;;2.22;;
51578;SDS011;47998;53.242;6.386;2023-06-14T04:17:05;6.82;;;2.42;;
51578;SDS011;47998;53.242;6.386;2023-06-14T04:19:31;5.75;;;2.40;;
51578;SDS011;47998;53.242;6.386;2023-06-14T04:21:58;3.70;;;2.08;;
51578;SDS011;47998;53.242;6.386;2023-06-14T04:24:26;8.65;;;2.35;;
51578;SDS011;47998;53.242;6.386;2023-06-14T04:26:57;6.10;;;2.63;;
51578;SDS011;47998;53.242;6.386;2023-06-14T04:29:23;3.53;;;2.30;;
51578;SDS011;47998;53.242;6.386;2023-06-14T04:31:53;7.30;;;2.70;;
51578;SDS011;47998;53.242;6.386;2023-06-14T04:34:20;5.45;;;2.47;;
51578;SDS011;47998;53.242;6.386;2023-06-14T04:36:46;6.22;;;2.35;;
51578;SDS011;47998;53.242;6.386;2023-06-14T04:39:18;8.68;;;2.65;;
51578;SDS011;47998;53.242;6.386;2023-06-14T04:41:45;4.03;;;2.33;;
51578;SDS011;47998;53.242;6.386;2023-06-14T04:44:11;4.63;;;2.60;;
51578;SDS011;47998;53.242;6.386;2023-06-14T04:46:38;4.90;;;2.70;;
51578;SDS011;47998;53.242;6.386;2023-06-14T04:51:40;5.32;;;2.13;;
51578;SDS011;47998;53.242;6.386;2023-06-14T04:54:07;3.78;;;2.60;;
51578;SDS011;47998;53.242;6.386;2023-06-14T04:56:38;3.97;;;2.65;;
51578;SDS011;47998;53.242;6.386;2023-06-14T04:59:04;5.30;;;2.25;;
51578;SDS011;47998;53.242;6.386;2023-06-14T05:01:30;4.35;;;2.63;;
51578;SDS011;47998;53.242;6.386;2023-06-14T05:03:59;5.65;;;2.42;;
51578;SDS011;47998;53.242;6.386;2023-06-14T05:06:25;6.28;;;2.58;;
51578;SDS011;47998;53.242;6.386;2023-06-14T05:08:54;6.00;;;2.30;;
51578;SDS011;47998;53.242;6.386;2023-06-14T05:11:20;6.57;;;3.05;;
51578;SDS011;47998;53.242;6.386;2023-06-14T05:13:46;4.40;;;2.65;;
51578;SDS011;47998;53.242;6.386;2023-06-14T05:16:12;4.90;;;2.70;;
51578;SDS011;47998;53.242;6.386;2023-06-14T05:18:38;5.93;;;2.58;;
51578;SDS011;47998;53.242;6.386;2023-06-14T05:21:05;6.97;;;2.65;;
51578;SDS011;47998;53.242;6.386;2023-06-14T05:23:31;6.03;;;2.42;;
51578;SDS011;47998;53.242;6.386;2023-06-14T05:25:56;5.03;;;2.63;;
51578;SDS011;47998;53.242;6.386;2023-06-14T05:28:22;6.20;;;2.58;;
51578;SDS011;47998;53.242;6.386;2023-06-14T05:30:48;6.82;;;2.40;;
51578;SDS011;47998;53.242;6.386;2023-06-14T05:33:15;5.03;;;2.35;;
51578;SDS011;47998;53.242;6.386;2023-06-14T05:35:40;7.07;;;2.33;;
51578;SDS011;47998;53.242;6.386;2023-06-14T05:38:06;3.70;;;1.83;;
51578;SDS011;47998;53.242;6.386;2023-06-14T05:40:32;5.57;;;2.75;;
51578;SDS011;47998;53.242;6.386;2023-06-14T05:42:58;7.57;;;3.10;;
51578;SDS011;47998;53.242;6.386;2023-06-14T05:45:24;9.95;;;3.40;;
51578;SDS011;47998;53.242;6.386;2023-06-14T05:47:50;5.55;;;2.35;;
51578;SDS011;47998;53.242;6.386;2023-06-14T05:50:17;6.22;;;2.55;;
51578;SDS011;47998;53.242;6.386;2023-06-14T05:52:43;5.15;;;2.15;;
51578;SDS011;47998;53.242;6.386;2023-06-14T05:55:08;5.78;;;2.50;;
51578;SDS011;47998;53.242;6.386;2023-06-14T05:57:37;4.93;;;2.58;;
51578;SDS011;47998;53.242;6.386;2023-06-14T06:00:03;3.35;;;2.33;;
51578;SDS011;47998;53.242;6.386;2023-06-14T06:02:42;6.53;;;2.58;;
51578;SDS011;47998;53.242;6.386;2023-06-14T06:05:09;4.70;;;1.90;;
51578;SDS011;47998;53.242;6.386;2023-06-14T06:07:35;3.20;;;2.20;;
51578;SDS011;47998;53.242;6.386;2023-06-14T06:10:02;4.30;;;2.50;;
51578;SDS011;47998;53.242;6.386;2023-06-14T06:12:28;4.15;;;2.42;;
51578;SDS011;47998;53.242;6.386;2023-06-14T06:14:54;4.15;;;2.10;;
51578;SDS011;47998;53.242;6.386;2023-06-14T06:17:20;7.68;;;2.25;;
51578;SDS011;47998;53.242;6.386;2023-06-14T06:19:46;3.15;;;2.20;;
51578;SDS011;47998;53.242;6.386;2023-06-14T06:22:12;4.68;;;2.45;;
51578;SDS011;47998;53.242;6.386;2023-06-14T06:24:37;3.00;;;2.08;;
51578;SDS011;47998;53.242;6.386;2023-06-14T06:27:03;5.03;;;2.30;;
51578;SDS011;47998;53.242;6.386;2023-06-14T06:29:29;5.22;;;2.40;;
51578;SDS011;47998;53.242;6.386;2023-06-14T06:31:55;3.63;;;2.13;;
51578;SDS011;47998;53.242;6.386;2023-06-14T06:34:21;3.58;;;2.25;;
51578;SDS011;47998;53.242;6.386;2023-06-14T06:36:47;5.30;;;2.28;;
51578;SDS011;47998;53.242;6.386;2023-06-14T06:39:13;4.07;;;2.20;;
51578;SDS011;47998;53.242;6.386;2023-06-14T06:41:40;4.53;;;2.40;;
51578;SDS011;47998;53.242;6.386;2023-06-14T06:44:06;6.53;;;2.53;;
51578;SDS011;47998;53.242;6.386;2023-06-14T06:46:33;4.97;;;2.20;;
51578;SDS011;47998;53.242;6.386;2023-06-14T06:49:00;3.83;;;2.42;;
51578;SDS011;47998;53.242;6.386;2023-06-14T06:51:26;4.70;;;1.90;;
51578;SDS011;47998;53.242;6.386;2023-06-14T06:53:52;4.18;;;1.95;;
51578;SDS011;47998;53.242;6.386;2023-06-14T06:56:19;4.10;;;2.10;;
51578;SDS011;47998;53.242;6.386;2023-06-14T06:58:46;6.10;;;2.03;;
51578;SDS011;47998;53.242;6.386;2023-06-14T07:01:12;5.30;;;2.20;;
51578;SDS011;47998;53.242;6.386;2023-06-14T07:03:39;5.88;;;2.40;;
51578;SDS011;47998;53.242;6.386;2023-06-14T07:06:04;4.72;;;2.05;;
51578;SDS011;47998;53.242;6.386;2023-06-14T07:08:30;6.22;;;1.90;;
51578;SDS011;47998;53.242;6.386;2023-06-14T07:10:56;4.25;;;2.30;;
51578;SDS011;47998;53.242;6.386;2023-06-14T07:13:21;11.13;;;2.28;;
51578;SDS011;47998;53.242;6.386;2023-06-14T07:15:47;4.55;;;2.22;;
51578;SDS011;47998;53.242;6.386;2023-06-14T07:18:13;3.60;;;2.00;;
51578;SDS011;47998;53.242;6.386;2023-06-14T07:20:38;7.22;;;2.00;;
51578;SDS011;47998;53.242;6.386;2023-06-14T07:23:05;3.17;;;1.80;;
51578;SDS011;47998;53.242;6.386;2023-06-14T07:25:31;5.25;;;1.80;;
51578;SDS011;47998;53.242;6.386;2023-06-14T07:27:56;4.05;;;2.00;;
51578;SDS011;47998;53.242;6.386;2023-06-14T07:30:22;2.88;;;1.85;;
51578;SDS011;47998;53.242;6.386;2023-06-14T07:32:51;3.13;;;1.80;;
51578;SDS011;47998;53.242;6.386;2023-06-14T07:35:18;6.90;;;2.08;;
51578;SDS011;47998;53.242;6.386;2023-06-14T07:37:44;5.80;;;2.05;;
51578;SDS011;47998;53.242;6.386;2023-06-14T07:40:12;6.22;;;2.40;;
51578;SDS011;47998;53.242;6.386;2023-06-14T07:42:38;3.85;;;1.90;;
51578;SDS011;47998;53.242;6.386;2023-06-14T07:45:04;6.57;;;1.83;;
51578;SDS011;47998;53.242;6.386;2023-06-14T07:47:31;5.38;;;2.00;;
51578;SDS011;47998;53.242;6.386;2023-06-14T07:49:57;2.70;;;1.65;;
51578;SDS011;47998;53.242;6.386;2023-06-14T07:52:23;4.43;;;2.63;;
51578;SDS011;47998;53.242;6.386;2023-06-14T07:54:48;2.90;;;1.83;;
51578;SDS011;47998;53.242;6.386;2023-06-14T07:57:14;5.25;;;2.30;;
51578;SDS011;47998;53.242;6.386;2023-06-14T07:59:40;3.30;;;1.55;;
51578;SDS011;47998;53.242;6.386;2023-06-14T08:02:05;5.90;;;1.83;;
51578;SDS011;47998;53.242;6.386;2023-06-14T08:04:31;4.47;;;1.73;;
51578;SDS011;47998;53.242;6.386;2023-06-14T08:06:58;3.67;;;1.27;;
51578;SDS011;47998;53.242;6.386;2023-06-14T08:09:24;5.40;;;1.75;;
51578;SDS011;47998;53.242;6.386;2023-06-14T08:11:50;2.60;;;1.40;;
51578;SDS011;47998;53.242;6.386;2023-06-14T08:14:16;5.55;;;1.58;;
51578;SDS011;47998;53.242;6.386;2023-06-14T08:16:42;4.45;;;1.90;;
51578;SDS011;47998;53.242;6.386;2023-06-14T08:19:07;2.08;;;1.27;;
51578;SDS011;47998;53.242;6.386;2023-06-14T08:21:33;5.13;;;1.83;;
51578;SDS011;47998;53.242;6.386;2023-06-14T08:24:01;6.90;;;1.90;;
51578;SDS011;47998;53.242;6.386;2023-06-14T08:26:27;4.10;;;1.63;;
51578;SDS011;47998;53.242;6.386;2023-06-14T08:28:57;5.72;;;1.45;;
51578;SDS011;47998;53.242;6.386;2023-06-14T08:31:23;2.28;;;1.60;;
51578;SDS011;47998;53.242;6.386;2023-06-14T08:33:52;4.38;;;1.90;;
51578;SDS011;47998;53.242;6.386;2023-06-14T08:36:18;5.85;;;1.75;;
51578;SDS011;47998;53.242;6.386;2023-06-14T08:38:45;5.18;;;1.60;;
51578;SDS011;47998;53.242;6.386;2023-06-14T08:41:11;4.97;;;2.08;;
51578;SDS011;47998;53.242;6.386;2023-06-14T08:43:38;4.18;;;1.85;;
51578;SDS011;47998;53.242;6.386;2023-06-14T08:46:04;4.97;;;1.20;;
51578;SDS011;47998;53.242;6.386;2023-06-14T08:48:33;3.92;;;1.63;;
51578;SDS011;47998;53.242;6.386;2023-06-14T08:51:00;8.98;;;1.77;;
51578;SDS011;47998;53.242;6.386;2023-06-14T08:53:31;3.10;;;1.73;;
51578;SDS011;47998;53.242;6.386;2023-06-14T08:56:01;6.55;;;1.73;;
51578;SDS011;47998;53.242;6.386;2023-06-14T08:58:30;4.07;;;1.55;;
51578;SDS011;47998;53.242;6.386;2023-06-14T09:01:02;3.75;;;1.77;;
51578;SDS011;47998;53.242;6.386;2023-06-14T09:03:28;4.20;;;1.52;;
51578;SDS011;47998;53.242;6.386;2023-06-14T09:05:58;5.22;;;1.60;;
51578;SDS011;47998;53.242;6.386;2023-06-14T09:08:24;4.97;;;1.52;;
51578;SDS011;47998;53.242;6.386;2023-06-14T09:10:51;3.80;;;1.25;;
51578;SDS011;47998;53.242;6.386;2023-06-14T09:13:17;3.92;;;1.60;;
51578;SDS011;47998;53.242;6.386;2023-06-14T09:15:43;5.88;;;1.92;;
51578;SDS011;47998;53.242;6.386;2023-06-14T09:18:09;2.63;;;1.35;;
51578;SDS011;47998;53.242;6.386;2023-06-14T09:20:35;3.63;;;1.50;;
51578;SDS011;47998;53.242;6.386;2023-06-14T09:23:01;4.95;;;1.85;;
51578;SDS011;47998;53.242;6.386;2023-06-14T09:25:27;8.52;;;2.10;;
51578;SDS011;47998;53.242;6.386;2023-06-14T09:27:53;2.78;;;1.80;;
51578;SDS011;47998;53.242;6.386;2023-06-14T09:30:20;5.72;;;1.40;;
51578;SDS011;47998;53.242;6.386;2023-06-14T09:32:46;7.53;;;2.28;;
51578;SDS011;47998;53.242;6.386;2023-06-14T09:35:12;4.60;;;1.67;;
51578;SDS011;47998;53.242;6.386;2023-06-14T09:37:42;2.28;;;1.38;;
51578;SDS011;47998;53.242;6.386;2023-06-14T09:40:08;4.70;;;1.52;;
51578;SDS011;47998;53.242;6.386;2023-06-14T09:42:34;4.80;;;1.58;;
51578;SDS011;47998;53.242;6.386;2023-06-14T09:45:02;4.85;;;1.80;;
51578;SDS011;47998;53.242;6.386;2023-06-14T09:47:29;4.68;;;1.88;;
51578;SDS011;47998;53.242;6.386;2023-06-14T09:49:54;6.95;;;1.58;;
51578;SDS011;47998;53.242;6.386;2023-06-14T09:52:21;3.50;;;1.48;;
51578;SDS011;47998;53.242;6.386;2023-06-14T09:54:48;8.05;;;1.98;;
51578;SDS011;47998;53.242;6.386;2023-06-14T09:57:15;4.07;;;1.17;;
51578;SDS011;47998;53.242;6.386;2023-06-14T09:59:45;3.35;;;1.55;;
51578;SDS011;47998;53.242;6.386;2023-06-14T10:02:25;2.90;;;1.27;;
51578;SDS011;47998;53.242;6.386;2023-06-14T10:04:58;7.22;;;1.60;;
51578;SDS011;47998;53.242;6.386;2023-06-14T10:07:53;5.60;;;1.55;;
51578;SDS011;47998;53.242;6.386;2023-06-14T10:10:25;3.72;;;1.50;;
51578;SDS011;47998;53.242;6.386;2023-06-14T10:12:50;3.33;;;1.42;;
51578;SDS011;47998;53.242;6.386;2023-06-14T10:15:29;3.63;;;1.35;;
51578;SDS011;47998;53.242;6.386;2023-06-14T10:18:17;4.53;;;1.75;;
51578;SDS011;47998;53.242;6.386;2023-06-14T10:23:45;8.93;;;2.20;;
51578;SDS011;47998;53.242;6.386;2023-06-14T10:26:19;1.95;;;1.23;;
51578;SDS011;47998;53.242;6.386;2023-06-14T10:28:56;3.80;;;1.70;;
51578;SDS011;47998;53.242;6.386;2023-06-14T10:31:32;3.22;;;1.65;;
51578;SDS011;47998;53.242;6.386;2023-06-14T10:34:09;1.80;;;1.42;;
51578;SDS011;47998;53.242;6.386;2023-06-14T10:36:37;3.10;;;1.48;;
51578;SDS011;47998;53.242;6.386;2023-06-14T10:39:06;4.13;;;1.55;;
51578;SDS011;47998;53.242;6.386;2023-06-14T10:41:39;4.93;;;1.48;;
51578;SDS011;47998;53.242;6.386;2023-06-14T10:46:47;3.95;;;1.48;;
51578;SDS011;47998;53.242;6.386;2023-06-14T10:49:17;5.95;;;1.55;;
51578;SDS011;47998;53.242;6.386;2023-06-14T10:51:51;4.50;;;1.40;;
51578;SDS011;47998;53.242;6.386;2023-06-14T10:56:50;5.78;;;1.60;;
51578;SDS011;47998;53.242;6.386;2023-06-14T10:59:18;3.55;;;1.40;;
51578;SDS011;47998;53.242;6.386;2023-06-14T11:04:23;5.03;;;1.30;;
51578;SDS011;47998;53.242;6.386;2023-06-14T11:13:08;4.88;;;1.50;;
51578;SDS011;47998;53.242;6.386;2023-06-14T11:15:37;5.75;;;1.65;;
51578;SDS011;47998;53.242;6.386;2023-06-14T11:18:08;1.75;;;1.05;;
51578;SDS011;47998;53.242;6.386;2023-06-14T11:20:36;3.58;;;1.42;;
51578;SDS011;47998;53.242;6.386;2023-06-14T11:23:03;2.67;;;1.33;;
51578;SDS011;47998;53.242;6.386;2023-06-14T11:25:29;1.98;;;1.40;;
51578;SDS011;47998;53.242;6.386;2023-06-14T11:27:55;2.45;;;1.30;;
51578;SDS011;47998;53.242;6.386;2023-06-14T11:30:21;5.75;;;1.45;;
51578;SDS011;47998;53.242;6.386;2023-06-14T11:32:51;3.95;;;1.40;;
51578;SDS011;47998;53.242;6.386;2023-06-14T11:35:18;8.95;;;1.70;;
51578;SDS011;47998;53.242;6.386;2023-06-14T11:37:47;4.45;;;1.60;;
51578;SDS011;47998;53.242;6.386;2023-06-14T11:40:14;2.40;;;1.40;;
51578;SDS011;47998;53.242;6.386;2023-06-14T11:42:40;4.13;;;1.30;;
51578;SDS011;47998;53.242;6.386;2023-06-14T11:45:09;4.60;;;1.23;;
51578;SDS011;47998;53.242;6.386;2023-06-14T11:47:36;4.03;;;1.40;;
51578;SDS011;47998;53.242;6.386;2023-06-14T11:50:06;3.92;;;1.38;;
51578;SDS011;47998;53.242;6.386;2023-06-14T11:52:36;3.05;;;1.48;;
51578;SDS011;47998;53.242;6.386;2023-06-14T11:55:02;2.95;;;1.30;;
51578;SDS011;47998;53.242;6.386;2023-06-14T11:57:34;4.80;;;1.50;;
51578;SDS011;47998;53.242;6.386;2023-06-14T12:00:04;5.28;;;1.10;;
51578;SDS011;47998;53.242;6.386;2023-06-14T12:02:37;4.70;;;1.30;;
51578;SDS011;47998;53.242;6.386;2023-06-14T12:05:04;1.85;;;1.05;;
51578;SDS011;47998;53.242;6.386;2023-06-14T12:07:33;10.95;;;1.50;;
51578;SDS011;47998;53.242;6.386;2023-06-14T12:12:24;3.72;;;1.10;;
51578;SDS011;47998;53.242;6.386;2023-06-14T12:14:51;3.00;;;1.10;;
51578;SDS011;47998;53.242;6.386;2023-06-14T12:17:18;1.55;;;1.02;;
51578;SDS011;47998;53.242;6.386;2023-06-14T12:19:45;2.50;;;1.13;;
51578;SDS011;47998;53.242;6.386;2023-06-14T12:22:12;4.88;;;1.10;;
51578;SDS011;47998;53.242;6.386;2023-06-14T12:24:39;3.45;;;1.48;;
51578;SDS011;47998;53.242;6.386;2023-06-14T12:27:08;1.30;;;0.80;;
51578;SDS011;47998;53.242;6.386;2023-06-14T12:29:33;3.70;;;0.90;;
51578;SDS011;47998;53.242;6.386;2023-06-14T12:32:00;3.05;;;0.85;;
51578;SDS011;47998;53.242;6.386;2023-06-14T12:34:26;4.43;;;1.13;;
51578;SDS011;47998;53.242;6.386;2023-06-14T12:36:55;2.55;;;1.00;;
51578;SDS011;47998;53.242;6.386;2023-06-14T12:39:22;1.65;;;0.80;;
51578;SDS011;47998;53.242;6.386;2023-06-14T12:41:48;1.92;;;1.00;;
51578;SDS011;47998;53.242;6.386;2023-06-14T12:44:14;2.80;;;1.02;;
51578;SDS011;47998;53.242;6.386;2023-06-14T12:46:42;2.60;;;1.10;;
51578;SDS011;47998;53.242;6.386;2023-06-14T12:49:09;3.15;;;1.08;;
51578;SDS011;47998;53.242;6.386;2023-06-14T12:51:37;2.53;;;0.80;;
51578;SDS011;47998;53.242;6.386;2023-06-14T12:54:03;1.90;;;0.93;;
51578;SDS011;47998;53.242;6.386;2023-06-14T12:56:29;3.92;;;1.00;;
51578;SDS011;47998;53.242;6.386;2023-06-14T12:58:54;10.25;;;1.40;;
51578;SDS011;47998;53.242;6.386;2023-06-14T13:01:20;4.22;;;0.80;;
51578;SDS011;47998;53.242;6.386;2023-06-14T13:03:46;2.40;;;0.90;;
51578;SDS011;47998;53.242;6.386;2023-06-14T13:06:13;3.40;;;1.33;;
51578;SDS011;47998;53.242;6.386;2023-06-14T13:08:39;3.63;;;0.65;;
51578;SDS011;47998;53.242;6.386;2023-06-14T13:11:04;2.30;;;0.90;;
51578;SDS011;47998;53.242;6.386;2023-06-14T13:13:30;2.22;;;0.95;;
51578;SDS011;47998;53.242;6.386;2023-06-14T13:15:56;1.02;;;0.70;;
51578;SDS011;47998;53.242;6.386;2023-06-14T13:18:21;2.40;;;0.90;;
51578;SDS011;47998;53.242;6.386;2023-06-14T13:20:47;1.33;;;0.93;;
51578;SDS011;47998;53.242;6.386;2023-06-14T13:23:13;2.17;;;1.00;;
51578;SDS011;47998;53.242;6.386;2023-06-14T13:25:40;2.42;;;0.98;;
51578;SDS011;47998;53.242;6.386;2023-06-14T13:28:06;1.80;;;1.20;;
51578;SDS011;47998;53.242;6.386;2023-06-14T13:30:32;2.03;;;1.05;;
51578;SDS011;47998;53.242;6.386;2023-06-14T13:32:59;3.50;;;1.10;;
51578;SDS011;47998;53.242;6.386;2023-06-14T13:35:26;4.22;;;1.42;;
51578;SDS011;47998;53.242;6.386;2023-06-14T13:37:52;3.47;;;1.55;;
51578;SDS011;47998;53.242;6.386;2023-06-14T13:40:17;3.25;;;1.00;;
51578;SDS011;47998;53.242;6.386;2023-06-14T13:42:43;2.67;;;0.75;;
51578;SDS011;47998;53.242;6.386;2023-06-14T13:45:10;3.40;;;1.20;;
51578;SDS011;47998;53.242;6.386;2023-06-14T13:47:36;5.35;;;1.23;;
51578;SDS011;47998;53.242;6.386;2023-06-14T13:50:03;3.60;;;1.30;;
51578;SDS011;47998;53.242;6.386;2023-06-14T13:52:29;2.30;;;0.98;;
51578;SDS011;47998;53.242;6.386;2023-06-14T13:54:55;2.80;;;0.80;;
51578;SDS011;47998;53.242;6.386;2023-06-14T13:57:21;1.88;;;1.05;;
51578;SDS011;47998;53.242;6.386;2023-06-14T13:59:47;4.90;;;1.15;;
51578;SDS011;47998;53.242;6.386;2023-06-14T14:02:13;3.92;;;1.00;;
51578;SDS011;47998;53.242;6.386;2023-06-14T14:04:39;4.65;;;1.02;;
51578;SDS011;47998;53.242;6.386;2023-06-14T14:07:06;2.60;;;1.00;;
51578;SDS011;47998;53.242;6.386;2023-06-14T14:09:32;3.33;;;0.85;;
51578;SDS011;47998;53.242;6.386;2023-06-14T14:12:03;3.00;;;1.10;;
51578;SDS011;47998;53.242;6.386;2023-06-14T14:14:30;3.03;;;1.10;;
51578;SDS011;47998;53.242;6.386;2023-06-14T14:16:57;2.22;;;1.00;;
51578;SDS011;47998;53.242;6.386;2023-06-14T14:19:23;2.42;;;1.08;;
51578;SDS011;47998;53.242;6.386;2023-06-14T14:21:49;2.92;;;1.20;;
51578;SDS011;47998;53.242;6.386;2023-06-14T14:24:15;2.55;;;1.20;;
51578;SDS011;47998;53.242;6.386;2023-06-14T14:26:41;5.75;;;1.33;;
51578;SDS011;47998;53.242;6.386;2023-06-14T14:29:07;2.17;;;1.30;;
51578;SDS011;47998;53.242;6.386;2023-06-14T14:31:36;2.67;;;1.58;;
51578;SDS011;47998;53.242;6.386;2023-06-14T14:34:02;2.83;;;1.00;;
51578;SDS011;47998;53.242;6.386;2023-06-14T14:36:27;4.65;;;1.02;;
51578;SDS011;47998;53.242;6.386;2023-06-14T14:38:53;3.05;;;1.10;;
51578;SDS011;47998;53.242;6.386;2023-06-14T14:41:19;1.48;;;0.82;;
51578;SDS011;47998;53.242;6.386;2023-06-14T14:43:45;1.92;;;0.93;;
51578;SDS011;47998;53.242;6.386;2023-06-14T14:46:11;2.78;;;0.90;;
51578;SDS011;47998;53.242;6.386;2023-06-14T14:48:36;3.65;;;0.90;;
51578;SDS011;47998;53.242;6.386;2023-06-14T14:51:02;4.03;;;0.90;;
51578;SDS011;47998;53.242;6.386;2023-06-14T14:53:28;10.23;;;1.92;;
51578;SDS011;47998;53.242;6.386;2023-06-14T14:55:54;3.72;;;1.60;;
51578;SDS011;47998;53.242;6.386;2023-06-14T14:58:20;3.53;;;1.75;;
51578;SDS011;47998;53.242;6.386;2023-06-14T15:00:46;5.47;;;1.83;;
51578;SDS011;47998;53.242;6.386;2023-06-14T15:03:12;4.88;;;2.25;;
51578;SDS011;47998;53.242;6.386;2023-06-14T15:05:39;5.53;;;1.80;;
51578;SDS011;47998;53.242;6.386;2023-06-14T15:08:05;4.38;;;1.83;;
51578;SDS011;47998;53.242;6.386;2023-06-14T15:10:40;4.03;;;2.08;;
51578;SDS011;47998;53.242;6.386;2023-06-14T15:13:09;6.50;;;2.05;;